createdAt,value
2023-04-05T00:02:14.211Z,6.56
2023-04-05T00:04:50.552Z,6.43
2023-04-05T00:07:21.787Z,6.55
2023-04-05T00:09:51.674Z,6.54
2023-04-05T00:12:21.114Z,6.55
2023-04-05T00:14:50.759Z,6.49
2023-04-05T00:17:22.775Z,6.51
2023-04-05T00:19:58.058Z,6.42
2023-04-05T00:22:36.020Z,6.44
2023-04-05T00:25:05.343Z,6.37
2023-04-05T00:27:34.812Z,6.36
2023-04-05T00:30:04.254Z,6.31
2023-04-05T00:32:36.367Z,6.30
2023-04-05T00:35:05.966Z,6.29
2023-04-05T00:37:35.373Z,6.28
2023-04-05T00:40:05.274Z,6.24
2023-04-05T00:42:34.576Z,6.26
2023-04-05T00:45:03.910Z,6.21
2023-04-05T00:47:35.967Z,6.22
2023-04-05T00:50:05.667Z,6.25
2023-04-05T00:52:37.917Z,6.28
2023-04-05T00:55:10.132Z,6.14
2023-04-05T00:57:39.979Z,6.09
2023-04-05T01:00:12.062Z,6.20
2023-04-05T01:02:55.863Z,6.18
2023-04-05T01:05:38.291Z,6.34
2023-04-05T01:08:14.797Z,6.25
2023-04-05T01:10:49.353Z,6.13
2023-04-05T01:13:19.330Z,6.10
2023-04-05T01:15:48.719Z,6.06
2023-04-05T01:18:22.083Z,6.01
2023-04-05T01:21:00.446Z,5.96
2023-04-05T01:23:40.658Z,5.89
2023-04-05T01:26:33.720Z,5.98
2023-04-05T01:29:30.899Z,5.94
2023-04-05T01:32:05.801Z,5.94
2023-04-05T01:34:42.792Z,5.92
2023-04-05T01:37:17.854Z,5.80
2023-04-05T01:39:49.093Z,5.88
2023-04-05T01:42:24.881Z,5.82
2023-04-05T01:44:54.648Z,5.82
2023-04-05T01:47:29.700Z,5.84
2023-04-05T01:49:59.076Z,5.84
2023-04-05T01:52:28.371Z,5.86
2023-04-05T01:54:57.686Z,5.88
2023-04-05T01:57:27.082Z,5.77
2023-04-05T01:59:56.456Z,5.78
2023-04-05T02:02:25.912Z,5.71
2023-04-05T02:04:57.888Z,5.68
2023-04-05T02:07:27.389Z,5.64
2023-04-05T02:09:56.692Z,5.59
2023-04-05T02:12:26.025Z,5.61
2023-04-05T02:14:55.353Z,5.61
2023-04-05T02:17:24.692Z,5.65
2023-04-05T02:19:54.001Z,5.55
2023-04-05T02:22:25.903Z,5.50
2023-04-05T02:24:55.441Z,5.47
2023-04-05T02:27:24.772Z,5.55
2023-04-05T02:29:55.886Z,5.55
2023-04-05T02:32:25.260Z,5.50
2023-04-05T02:34:54.651Z,5.29
2023-04-05T02:37:27.334Z,5.39
2023-04-05T02:39:56.855Z,5.39
2023-04-05T02:42:26.329Z,5.31
2023-04-05T02:44:56.648Z,5.25
2023-04-05T02:47:25.994Z,5.33
2023-04-05T02:49:55.334Z,5.36
2023-04-05T02:52:27.231Z,5.28
2023-04-05T02:54:56.535Z,5.05
2023-04-05T02:57:26.014Z,4.98
2023-04-05T02:59:55.643Z,4.90
2023-04-05T03:02:25.008Z,5.06
2023-04-05T03:04:55.043Z,5.02
2023-04-05T03:07:27.934Z,5.10
2023-04-05T03:09:58.238Z,5.04
2023-04-05T03:12:27.801Z,5.00
2023-04-05T03:14:57.145Z,5.00
2023-04-05T03:17:26.553Z,5.00
2023-04-05T03:19:55.877Z,5.05
2023-04-05T03:22:28.228Z,5.13
2023-04-05T03:24:57.595Z,5.01
2023-04-05T03:27:27.312Z,4.95
2023-04-05T03:29:56.600Z,4.95
2023-04-05T03:32:25.938Z,4.96
2023-04-05T03:34:55.476Z,4.98
2023-04-05T03:37:27.391Z,4.89
2023-04-05T03:39:56.844Z,5.01
2023-04-05T03:42:26.140Z,4.95
2023-04-05T03:44:56.188Z,4.84
2023-04-05T03:47:25.702Z,4.83
2023-04-05T03:49:55.052Z,4.81
2023-04-05T03:52:27.418Z,4.87
2023-04-05T03:54:56.764Z,4.71
2023-04-05T03:57:26.225Z,4.73
2023-04-05T03:59:55.551Z,4.85
2023-04-05T04:02:25.226Z,4.81
2023-04-05T04:04:54.754Z,4.64
2023-04-05T04:07:26.902Z,4.75
2023-04-05T04:09:56.664Z,4.68
2023-04-05T04:12:26.106Z,4.70
2023-04-05T04:14:55.435Z,4.58
2023-04-05T04:17:31.407Z,4.59
2023-04-05T04:20:01.585Z,4.53
2023-04-05T04:22:33.553Z,4.43
2023-04-05T04:25:04.718Z,4.49
2023-04-05T04:27:36.394Z,4.51
2023-04-05T04:30:06.447Z,4.59
2023-04-05T04:32:50.313Z,4.54
2023-04-05T04:35:20.990Z,4.56
2023-04-05T04:37:55.553Z,4.42
2023-04-05T04:40:26.035Z,4.49
2023-04-05T04:42:58.783Z,4.47
2023-04-05T04:45:29.257Z,4.37
2023-04-05T04:47:59.973Z,4.40
2023-04-05T04:50:30.485Z,4.30
2023-04-05T04:53:02.898Z,4.31
2023-04-05T04:55:33.677Z,4.26
2023-04-05T04:58:09.913Z,4.29
2023-04-05T05:00:42.073Z,4.25
2023-04-05T05:03:11.703Z,4.22
2023-04-05T05:05:45.497Z,4.26
2023-04-05T05:08:20.615Z,4.25
2023-04-05T05:10:54.456Z,4.19
2023-04-05T05:13:24.065Z,4.18
2023-04-05T05:15:53.856Z,4.14
2023-04-05T05:18:23.272Z,4.12
2023-04-05T05:20:54.165Z,4.16
2023-04-05T05:23:26.828Z,4.06
2023-04-05T05:26:00.951Z,4.01
2023-04-05T05:28:30.433Z,4.12
2023-04-05T05:30:59.793Z,4.05
2023-04-05T05:33:29.244Z,4.01
2023-04-05T05:35:58.674Z,4.01
2023-04-05T05:38:30.742Z,3.99
2023-04-05T05:41:00.659Z,4.04
2023-04-05T05:43:29.969Z,3.99
2023-04-05T05:46:03.355Z,3.96
2023-04-05T05:48:33.406Z,4.05
2023-04-05T05:51:09.650Z,3.96
2023-04-05T05:53:42.815Z,3.98
2023-04-05T05:56:12.141Z,3.93
2023-04-05T05:58:42.176Z,3.91
2023-04-05T06:01:12.283Z,4.02
2023-04-05T06:03:41.737Z,4.03
2023-04-05T06:06:11.419Z,3.97
2023-04-05T06:08:43.569Z,4.06
2023-04-05T06:11:20.281Z,4.07
2023-04-05T06:13:49.793Z,4.03
2023-04-05T06:16:19.194Z,4.10
2023-04-05T06:18:48.705Z,4.09
2023-04-05T06:21:18.548Z,4.11
2023-04-05T06:23:50.776Z,4.14
2023-04-05T06:26:23.089Z,4.24
2023-04-05T06:28:52.521Z,4.18
2023-04-05T06:31:23.469Z,4.20
2023-04-05T06:33:52.844Z,4.18
2023-04-05T06:36:22.146Z,4.16
2023-04-05T06:38:56.096Z,4.18
2023-04-05T06:41:25.424Z,4.24
2023-04-05T06:43:54.768Z,4.17
2023-04-05T06:46:24.688Z,4.21
2023-04-05T06:48:54.482Z,4.12
2023-04-05T06:51:23.829Z,4.13
2023-04-05T06:53:55.739Z,4.14
2023-04-05T06:56:25.039Z,4.14
2023-04-05T06:58:55.934Z,4.24
2023-04-05T07:01:26.388Z,4.20
2023-04-05T07:03:56.299Z,4.16
2023-04-05T07:06:25.956Z,4.19
2023-04-05T07:08:58.064Z,4.18
2023-04-05T07:11:27.412Z,4.16
2023-04-05T07:13:56.721Z,4.32
2023-04-05T07:16:26.184Z,4.31
2023-04-05T07:18:55.564Z,4.43
2023-04-05T07:21:24.868Z,4.54
2023-04-05T07:23:56.166Z,4.47
2023-04-05T07:26:29.072Z,4.60
2023-04-05T07:28:58.451Z,4.64
2023-04-05T07:31:27.816Z,4.55
2023-04-05T07:33:58.251Z,4.64
2023-04-05T07:36:28.401Z,4.82
2023-04-05T07:38:57.708Z,4.96
2023-04-05T07:41:33.619Z,4.92
2023-04-05T07:44:03.363Z,5.01
2023-04-05T07:46:33.121Z,5.10
2023-04-05T07:49:02.437Z,5.02
2023-04-05T07:51:35.369Z,5.18
2023-04-05T07:54:05.597Z,5.36
2023-04-05T07:56:39.708Z,5.47
2023-04-05T07:59:09.052Z,5.59
2023-04-05T08:01:38.393Z,5.77
2023-04-05T08:04:07.866Z,5.88
2023-04-05T08:06:37.321Z,5.84
2023-04-05T08:09:08.373Z,6.09
2023-04-05T08:11:40.536Z,6.14
2023-04-05T08:14:09.908Z,6.35
2023-04-05T08:16:39.454Z,6.28
2023-04-05T08:19:08.913Z,6.49
2023-04-05T08:21:38.224Z,6.51
2023-04-05T08:24:08.112Z,6.69
2023-04-05T08:26:41.879Z,6.75
2023-04-05T08:29:11.374Z,6.89
2023-04-05T08:31:40.745Z,6.99
2023-04-05T08:34:10.209Z,6.90
2023-04-05T08:36:39.571Z,7.10
2023-04-05T08:39:08.901Z,7.36
2023-04-05T08:41:44.747Z,7.27
2023-04-05T08:44:14.756Z,7.39
2023-04-05T08:46:46.871Z,7.37
2023-04-05T08:49:16.226Z,7.32
2023-04-05T08:51:45.558Z,7.47
2023-04-05T08:54:14.988Z,7.61
2023-04-05T08:56:51.653Z,7.82
2023-04-05T08:59:22.281Z,7.86
2023-04-05T09:01:53.523Z,7.81
2023-04-05T09:04:25.022Z,7.89
2023-04-05T09:06:54.975Z,7.96
2023-04-05T09:09:25.507Z,7.92
2023-04-05T09:11:58.575Z,7.98
2023-04-05T09:14:29.334Z,8.20
2023-04-05T09:16:59.147Z,8.15
2023-04-05T09:19:28.514Z,8.24
2023-04-05T09:22:02.483Z,8.29
2023-04-05T09:24:37.068Z,8.31
2023-04-05T09:27:11.443Z,8.48
2023-04-05T09:29:42.548Z,8.54
2023-04-05T09:32:13.212Z,8.56
2023-04-05T09:34:44.053Z,8.69
2023-04-05T09:37:17.744Z,8.71
2023-04-05T09:39:49.414Z,9.08
2023-04-05T09:42:23.198Z,9.11
2023-04-05T09:44:54.495Z,8.99
2023-04-05T09:47:25.212Z,9.10
2023-04-05T09:49:54.712Z,9.11
2023-04-05T09:52:25.936Z,9.15
2023-04-05T09:54:56.916Z,9.20
2023-04-05T09:57:30.755Z,9.11
2023-04-05T10:00:00.138Z,9.16
2023-04-05T10:02:39.454Z,9.09
2023-04-05T10:05:12.511Z,9.33
2023-04-05T10:07:42.277Z,9.31
2023-04-05T10:10:13.332Z,9.48
2023-04-05T10:12:46.809Z,9.46
2023-04-05T10:15:16.791Z,9.55
2023-04-05T10:17:55.703Z,9.46
2023-04-05T10:20:26.673Z,9.51
2023-04-05T10:23:10.591Z,9.43
2023-04-05T10:25:52.297Z,9.42
2023-04-05T10:28:33.943Z,9.67
2023-04-05T10:31:14.183Z,9.52
2023-04-05T10:33:48.150Z,9.51
2023-04-05T10:36:26.394Z,9.85
2023-04-05T10:39:04.415Z,9.68
2023-04-05T10:41:38.009Z,9.76
2023-04-05T10:44:25.015Z,9.90
2023-04-05T10:46:56.975Z,9.91
2023-04-05T10:49:35.976Z,10.16
2023-04-05T10:52:05.758Z,9.97
2023-04-05T10:54:37.243Z,9.78
2023-04-05T10:57:10.182Z,10.06
2023-04-05T10:59:48.995Z,9.82
2023-04-05T11:02:19.311Z,9.92
2023-04-05T11:04:48.802Z,9.98
2023-04-05T11:07:19.338Z,10.10
2023-04-05T11:09:58.148Z,9.95
2023-04-05T11:13:00.734Z,10.06
2023-04-05T11:15:37.307Z,10.24
2023-04-05T11:18:12.768Z,9.99
2023-04-05T11:20:53.087Z,10.16
2023-04-05T11:23:24.969Z,10.08
2023-04-05T11:25:57.678Z,9.94
2023-04-05T11:28:28.764Z,9.85
2023-04-05T11:31:02.166Z,9.94
2023-04-05T11:34:10.504Z,10.24
2023-04-05T11:36:42.221Z,10.19
2023-04-05T11:39:27.362Z,10.23
2023-04-05T11:41:58.729Z,10.27
2023-04-05T11:44:28.081Z,10.20
2023-04-05T11:47:00.042Z,10.66
2023-04-05T11:49:29.488Z,10.58
2023-04-05T11:51:58.828Z,10.41
2023-04-05T11:54:32.575Z,10.71
2023-04-05T11:57:02.268Z,10.59
2023-04-05T11:59:35.544Z,10.80
2023-04-05T12:02:09.365Z,10.87
2023-04-05T12:04:39.695Z,10.73
2023-04-05T12:07:16.700Z,10.72
2023-04-05T12:10:02.535Z,10.84
2023-04-05T12:12:36.145Z,10.67
2023-04-05T12:15:09.757Z,10.73
2023-04-05T12:17:49.987Z,10.58
2023-04-05T12:20:22.168Z,10.61
2023-04-05T12:22:52.585Z,10.64
2023-04-05T12:25:23.122Z,10.43
2023-04-05T12:27:53.387Z,10.80
2023-04-05T12:30:24.076Z,10.82
2023-04-05T12:32:58.276Z,10.69
2023-04-05T12:35:33.212Z,10.78
2023-04-05T12:38:03.672Z,10.65
2023-04-05T12:40:33.130Z,10.59
2023-04-05T12:43:06.977Z,10.44
2023-04-05T12:45:43.770Z,10.47
2023-04-05T12:48:17.288Z,10.66
2023-04-05T12:50:48.586Z,10.46
2023-04-05T12:53:23.498Z,10.72
2023-04-05T12:55:54.156Z,10.36
2023-04-05T12:58:24.541Z,10.21
2023-04-05T13:00:53.963Z,10.50
2023-04-05T13:03:29.251Z,10.68
2023-04-05T13:05:59.746Z,10.51
2023-04-05T13:08:29.660Z,10.63
2023-04-05T13:10:59.057Z,10.58
2023-04-05T13:13:28.389Z,10.64
2023-04-05T13:15:57.731Z,10.57
2023-04-05T13:18:29.711Z,10.51
2023-04-05T13:20:59.141Z,10.49
2023-04-05T13:23:28.456Z,10.55
2023-04-05T13:25:57.810Z,10.60
2023-04-05T13:28:27.491Z,10.61
2023-04-05T13:30:56.851Z,10.57
2023-04-05T13:33:29.198Z,10.65
2023-04-05T13:35:58.673Z,10.52
2023-04-05T13:38:28.061Z,10.76
2023-04-05T13:40:57.431Z,10.84
2023-04-05T13:43:28.117Z,10.78
2023-04-05T13:45:57.483Z,10.88
2023-04-05T13:48:29.458Z,11.21
2023-04-05T13:50:58.797Z,11.01
2023-04-05T13:53:28.715Z,11.00
2023-04-05T13:55:58.158Z,10.91
2023-04-05T13:58:27.454Z,11.06
2023-04-05T14:00:57.178Z,11.00
2023-04-05T14:03:29.683Z,11.03
2023-04-05T14:05:59.047Z,10.97
2023-04-05T14:08:28.449Z,10.86
2023-04-05T14:10:57.782Z,11.00
2023-04-05T14:13:27.201Z,10.95
2023-04-05T14:15:56.524Z,10.89
2023-04-05T14:18:26.179Z,11.01
2023-04-05T14:20:59.032Z,10.90
2023-04-05T14:23:29.032Z,10.93
2023-04-05T14:25:58.328Z,10.93
2023-04-05T14:28:27.717Z,11.06
2023-04-05T14:30:58.940Z,10.98
2023-04-05T14:33:29.378Z,10.86
2023-04-05T14:36:01.302Z,10.99
2023-04-05T14:38:30.782Z,10.94
2023-04-05T14:41:00.118Z,11.02
2023-04-05T14:43:29.528Z,10.89
2023-04-05T14:45:58.900Z,11.04
2023-04-05T14:48:30.322Z,11.09
2023-04-05T14:51:02.317Z,11.21
2023-04-05T14:53:31.800Z,11.11
2023-04-05T14:56:01.241Z,11.00
2023-04-05T14:58:30.771Z,11.03
2023-04-05T15:01:00.238Z,11.05
2023-04-05T15:03:31.060Z,11.00
2023-04-05T15:06:06.363Z,10.98
2023-04-05T15:08:36.024Z,11.08
2023-04-05T15:11:05.373Z,11.00
2023-04-05T15:13:34.798Z,11.05
2023-04-05T15:16:04.096Z,10.84
2023-04-05T15:18:33.400Z,10.94
2023-04-05T15:21:05.623Z,11.00
2023-04-05T15:23:35.007Z,10.96
2023-04-05T15:26:04.322Z,11.01
2023-04-05T15:28:33.650Z,10.91
2023-04-05T15:31:02.988Z,10.93
2023-04-05T15:33:32.345Z,10.96
2023-04-05T15:36:01.777Z,11.07
2023-04-05T15:38:33.673Z,10.91
2023-04-05T15:43:37.919Z,11.06
2023-04-05T15:46:07.567Z,10.93
2023-04-05T15:48:36.950Z,11.01
2023-04-05T15:51:06.468Z,10.79
2023-04-05T15:53:38.556Z,10.89
2023-04-05T15:56:08.787Z,10.97
2023-04-05T15:58:38.099Z,10.86
2023-04-05T16:01:08.024Z,11.02
2023-04-05T16:03:37.457Z,10.94
2023-04-05T16:06:06.977Z,10.93
2023-04-05T16:08:38.883Z,11.04
2023-04-05T16:11:09.769Z,10.94
2023-04-05T16:13:39.235Z,10.99
2023-04-05T16:16:09.482Z,10.98
2023-04-05T16:18:38.791Z,10.81
2023-04-05T16:21:08.121Z,10.80
2023-04-05T16:23:40.529Z,10.94
2023-04-05T16:26:09.849Z,10.98
2023-04-05T16:28:39.155Z,10.92
2023-04-05T16:31:08.542Z,10.82
2023-04-05T16:33:38.069Z,11.02
2023-04-05T16:36:07.613Z,10.86
2023-04-05T16:38:37.359Z,10.86
2023-04-05T16:41:09.253Z,10.94
2023-04-05T16:43:38.605Z,10.98
2023-04-05T16:46:08.102Z,10.93
2023-04-05T16:48:37.516Z,10.94
2023-04-05T16:51:07.361Z,10.95
2023-04-05T16:53:36.906Z,11.01
2023-04-05T16:56:09.396Z,10.96
2023-04-05T16:58:38.871Z,10.95
2023-04-05T17:01:08.430Z,10.89
2023-04-05T17:03:37.854Z,10.99
2023-04-05T17:06:08.097Z,10.90
2023-04-05T17:08:37.442Z,11.00
2023-04-05T17:11:09.486Z,10.99
2023-04-05T17:13:38.811Z,10.83
2023-04-05T17:16:09.226Z,10.88
2023-04-05T17:18:38.600Z,10.96
2023-04-05T17:21:08.914Z,10.90
2023-04-05T17:23:38.216Z,10.99
2023-04-05T17:26:10.167Z,10.93
2023-04-05T17:28:39.502Z,11.00
2023-04-05T17:31:08.888Z,11.04
2023-04-05T17:33:38.206Z,11.00
2023-04-05T17:36:08.300Z,10.88
2023-04-05T17:38:37.674Z,10.99
2023-04-05T17:41:09.733Z,10.74
2023-04-05T17:43:39.141Z,10.71
2023-04-05T17:46:09.489Z,10.82
2023-04-05T17:48:40.158Z,10.84
2023-04-05T17:51:10.940Z,11.01
2023-04-05T17:53:40.457Z,10.97
2023-04-05T17:56:12.363Z,11.03
2023-04-05T17:58:41.796Z,10.87
2023-04-05T18:01:14.846Z,10.93
2023-04-05T18:03:45.319Z,10.97
2023-04-05T18:06:16.569Z,11.02
2023-04-05T18:08:46.112Z,10.99
2023-04-05T18:11:18.065Z,10.98
2023-04-05T18:13:47.619Z,11.06
2023-04-05T18:16:16.996Z,10.97
2023-04-05T18:18:46.646Z,10.98
2023-04-05T18:21:16.020Z,11.04
2023-04-05T18:23:45.463Z,11.00
2023-04-05T18:26:15.041Z,11.06
2023-04-05T18:28:47.792Z,11.05
2023-04-05T18:31:17.182Z,10.91
2023-04-05T18:33:46.485Z,10.88
2023-04-05T18:36:15.856Z,11.00
2023-04-05T18:38:45.949Z,10.95
2023-04-05T18:41:15.377Z,11.03
2023-04-05T18:43:48.163Z,11.01
2023-04-05T18:46:18.853Z,11.00
2023-04-05T18:48:54.351Z,11.02
2023-04-05T18:51:24.392Z,11.03
2023-04-05T18:53:53.732Z,10.99
2023-04-05T18:56:23.084Z,11.03
2023-04-05T18:58:54.992Z,11.04
2023-04-05T19:01:24.598Z,10.72
2023-04-05T19:03:53.933Z,10.68
2023-04-05T19:06:23.269Z,10.57
2023-04-05T19:08:52.637Z,10.64
2023-04-05T19:11:22.162Z,10.51
2023-04-05T19:13:54.017Z,10.48
2023-04-05T19:16:25.986Z,10.43
2023-04-05T19:18:56.029Z,10.45
2023-04-05T19:21:25.461Z,10.61
2023-04-05T19:23:54.796Z,10.64
2023-04-05T19:26:24.561Z,10.69
2023-04-05T19:28:53.974Z,10.69
2023-04-05T19:31:26.659Z,10.70
2023-04-05T19:33:56.161Z,10.75
2023-04-05T19:36:26.166Z,10.77
2023-04-05T19:38:55.524Z,10.76
2023-04-05T19:41:32.581Z,10.72
2023-04-05T19:44:02.167Z,10.69
2023-04-05T19:46:34.113Z,10.77
2023-04-05T19:49:10.114Z,10.68
2023-04-05T19:51:39.643Z,10.67
2023-04-05T19:54:13.162Z,10.69
2023-04-05T19:56:42.980Z,10.79
2023-04-05T19:59:31.965Z,10.69
2023-04-05T20:02:05.507Z,10.78
2023-04-05T20:04:39.085Z,10.84
2023-04-05T20:07:10.788Z,10.74
2023-04-05T20:09:41.172Z,10.77
2023-04-05T20:12:13.253Z,10.81
2023-04-05T20:14:45.951Z,10.76
2023-04-05T20:17:19.380Z,10.81
2023-04-05T20:20:00.898Z,10.74
2023-04-05T20:22:31.357Z,10.77
2023-04-05T20:25:00.785Z,10.72
2023-04-05T20:27:30.154Z,10.75
2023-04-05T20:29:59.601Z,10.69
2023-04-05T20:32:32.083Z,10.72
2023-04-05T20:35:01.446Z,10.76
2023-04-05T20:37:30.744Z,10.60
2023-04-05T20:40:00.048Z,10.58
2023-04-05T20:42:31.613Z,10.62
2023-04-05T20:45:00.900Z,10.63
2023-04-05T20:47:32.850Z,10.71
2023-04-05T20:50:02.163Z,10.74
2023-04-05T20:52:31.781Z,10.67
2023-04-05T20:55:01.823Z,10.62
2023-04-05T20:57:31.427Z,10.61
2023-04-05T21:00:02.289Z,10.34
2023-04-05T21:02:34.379Z,10.20
2023-04-05T21:05:04.143Z,10.15
2023-04-05T21:07:34.439Z,10.12
2023-04-05T21:10:03.738Z,9.95
2023-04-05T21:12:34.849Z,9.89
2023-04-05T21:15:04.183Z,9.82
2023-04-05T21:17:36.161Z,9.86
2023-04-05T21:20:05.613Z,9.90
2023-04-05T21:22:35.002Z,10.10
2023-04-05T21:25:05.689Z,9.94
2023-04-05T21:27:35.030Z,9.83
2023-04-05T21:30:04.344Z,9.78
2023-04-05T21:32:36.295Z,10.01
2023-04-05T21:35:05.644Z,10.07
2023-04-05T21:37:35.137Z,10.09
2023-04-05T21:40:05.018Z,10.11
2023-04-05T21:42:34.960Z,10.08
2023-04-05T21:45:05.098Z,10.11
2023-04-05T21:47:37.526Z,10.11
2023-04-05T21:50:08.578Z,9.97
2023-04-05T21:52:38.419Z,10.03
2023-04-05T21:55:08.688Z,10.00
2023-04-05T21:57:38.269Z,9.98
2023-04-05T22:00:12.920Z,10.06
2023-04-05T22:02:45.524Z,10.04
2023-04-05T22:05:25.726Z,9.99
2023-04-05T22:08:03.862Z,9.97
2023-04-05T22:10:33.453Z,9.93
2023-04-05T22:13:02.824Z,9.70
2023-04-05T22:15:32.251Z,9.51
2023-04-05T22:18:05.705Z,9.45
2023-04-05T22:20:35.364Z,9.42
2023-04-05T22:23:04.707Z,9.30
2023-04-05T22:25:34.069Z,9.34
2023-04-05T22:28:03.378Z,9.23
2023-04-05T22:30:43.823Z,9.16
2023-04-05T22:33:16.376Z,9.23
2023-04-05T22:35:45.748Z,9.14
2023-04-05T22:38:15.137Z,9.10
2023-04-05T22:40:45.418Z,9.12
2023-04-05T22:43:14.920Z,9.12
2023-04-05T22:45:44.316Z,9.10
2023-04-05T22:48:16.242Z,9.08
2023-04-05T22:50:45.653Z,9.06
2023-04-05T22:53:14.966Z,9.11
2023-04-05T22:55:44.299Z,8.99
2023-04-05T22:58:13.639Z,8.86
2023-04-05T23:00:43.510Z,8.94
2023-04-05T23:03:12.887Z,8.93
2023-04-05T23:05:45.107Z,8.84
2023-04-05T23:08:14.419Z,8.84
2023-04-05T23:10:43.748Z,8.93
2023-04-05T23:13:13.089Z,9.06
2023-04-05T23:15:42.505Z,8.95
2023-04-05T23:18:11.913Z,8.94
2023-04-05T23:20:43.833Z,8.96
2023-04-05T23:23:13.771Z,8.90
2023-04-05T23:25:43.068Z,8.77
2023-04-05T23:28:12.408Z,8.74
2023-04-05T23:30:41.732Z,8.74
2023-04-05T23:33:13.501Z,8.65
2023-04-05T23:35:46.071Z,8.81
2023-04-05T23:38:15.407Z,8.89
2023-04-05T23:40:44.729Z,8.60
2023-04-05T23:43:14.157Z,8.80
2023-04-05T23:45:43.475Z,8.84
2023-04-05T23:48:12.801Z,8.63
2023-04-05T23:50:42.873Z,8.50
2023-04-05T23:53:14.776Z,8.54
2023-04-05T23:55:44.086Z,8.48
2023-04-05T23:58:13.397Z,8.43
